createdAt,value
2023-03-01T00:01:26.700Z,91.50
2023-03-01T00:03:56.220Z,119.33
2023-03-01T00:06:24.958Z,124.87
2023-03-01T00:08:53.065Z,114.00
2023-03-01T00:11:26.522Z,120.07
2023-03-01T00:13:56.742Z,123.77
2023-03-01T00:16:27.808Z,128.67
2023-03-01T00:18:56.910Z,124.53
2023-03-01T00:21:24.923Z,111.27
2023-03-01T00:23:53.103Z,108.43
2023-03-01T00:26:21.949Z,94.07
2023-03-01T00:28:50.039Z,82.73
2023-03-01T00:31:20.191Z,89.17
2023-03-01T00:33:48.541Z,87.00
2023-03-01T00:36:17.075Z,67.57
2023-03-01T00:38:46.982Z,55.10
2023-03-01T00:41:17.003Z,58.57
2023-03-01T00:43:45.660Z,62.03
2023-03-01T00:46:16.159Z,63.13
2023-03-01T00:48:45.605Z,63.03
2023-03-01T00:51:17.350Z,68.43
2023-03-01T00:53:46.055Z,70.53
2023-03-01T00:56:15.726Z,73.63
2023-03-01T00:58:45.265Z,73.73
2023-03-01T01:01:18.732Z,66.93
2023-03-01T01:03:49.618Z,62.57
2023-03-01T01:06:26.672Z,60.13
2023-03-01T01:08:55.850Z,58.77
2023-03-01T01:11:25.559Z,52.77
2023-03-01T01:13:54.480Z,55.83
2023-03-01T01:16:23.492Z,64.57
2023-03-01T01:18:51.953Z,54.90
2023-03-01T01:21:22.451Z,58.00
2023-03-01T01:23:50.707Z,58.70
2023-03-01T01:26:23.781Z,57.30
2023-03-01T01:28:52.078Z,58.00
2023-03-01T01:31:20.279Z,58.07
2023-03-01T01:33:48.326Z,58.37
2023-03-01T01:36:15.812Z,60.73
2023-03-01T01:38:43.838Z,68.17
2023-03-01T01:41:13.196Z,59.17
2023-03-01T01:43:52.905Z,58.47
2023-03-01T01:46:33.197Z,56.30
2023-03-01T01:49:11.225Z,57.27
2023-03-01T01:51:43.265Z,61.40
2023-03-01T01:54:19.756Z,63.67
2023-03-01T01:56:52.174Z,61.73
2023-03-01T01:59:25.946Z,65.27
2023-03-01T02:01:54.181Z,64.73
2023-03-01T02:04:23.104Z,69.53
2023-03-01T02:07:03.971Z,69.33
2023-03-01T02:09:33.380Z,69.27
2023-03-01T02:12:05.466Z,70.93
2023-03-01T02:14:33.743Z,67.57
2023-03-01T02:17:01.175Z,66.30
2023-03-01T02:19:47.484Z,66.17
2023-03-01T02:22:25.242Z,70.50
2023-03-01T02:25:05.789Z,68.20
2023-03-01T02:27:57.902Z,66.37
2023-03-01T02:30:26.864Z,61.80
2023-03-01T02:33:04.146Z,63.90
2023-03-01T02:35:39.343Z,65.43
2023-03-01T02:38:09.918Z,59.80
2023-03-01T02:40:40.614Z,60.70
2023-03-01T02:43:11.512Z,63.17
2023-03-01T02:45:49.267Z,62.87
2023-03-01T02:48:16.627Z,61.47
2023-03-01T02:51:04.630Z,60.27
2023-03-01T02:53:47.964Z,57.03
2023-03-01T02:56:16.514Z,55.70
2023-03-01T02:58:52.304Z,59.63
2023-03-01T03:01:21.447Z,62.07
2023-03-01T03:03:48.930Z,56.40
2023-03-01T03:06:17.137Z,57.87
2023-03-01T03:08:45.446Z,54.07
2023-03-01T03:11:13.059Z,51.90
2023-03-01T03:13:49.315Z,49.13
2023-03-01T03:16:18.825Z,51.40
2023-03-01T03:18:46.531Z,54.63
2023-03-01T03:21:15.144Z,52.23
2023-03-01T03:23:42.571Z,49.00
2023-03-01T03:26:16.278Z,52.73
2023-03-01T03:28:44.248Z,52.97
2023-03-01T03:31:12.280Z,48.27
2023-03-01T03:33:39.978Z,54.37
2023-03-01T03:36:08.322Z,53.33
2023-03-01T03:38:36.029Z,48.17
2023-03-01T03:41:08.460Z,48.13
2023-03-01T03:43:38.359Z,48.33
2023-03-01T03:46:06.943Z,48.10
2023-03-01T03:48:36.323Z,48.30
2023-03-01T03:51:06.869Z,46.30
2023-03-01T03:53:35.051Z,48.57
2023-03-01T03:56:02.807Z,46.40
2023-03-01T03:58:30.488Z,49.97
2023-03-01T04:00:59.071Z,49.37
2023-03-01T04:03:27.909Z,42.70
2023-03-01T04:05:56.133Z,50.40
2023-03-01T04:08:24.958Z,45.67
2023-03-01T04:10:57.671Z,51.60
2023-03-01T04:13:26.799Z,50.10
2023-03-01T04:15:56.017Z,52.57
2023-03-01T04:18:26.274Z,51.70
2023-03-01T04:20:56.537Z,60.67
2023-03-01T04:23:24.438Z,53.43
2023-03-01T04:25:56.587Z,48.03
2023-03-01T04:28:35.824Z,51.57
2023-03-01T04:31:17.317Z,53.73
2023-03-01T04:33:49.962Z,60.00
2023-03-01T04:36:18.941Z,60.80
2023-03-01T04:38:49.830Z,49.23
2023-03-01T04:41:20.262Z,43.30
2023-03-01T04:43:47.705Z,54.20
2023-03-01T04:46:19.038Z,48.60
2023-03-01T04:48:48.309Z,46.90
2023-03-01T04:51:17.378Z,42.37
2023-03-01T04:53:45.660Z,50.70
2023-03-01T04:56:15.044Z,47.83
2023-03-01T04:58:43.231Z,49.30
2023-03-01T05:01:20.947Z,49.50
2023-03-01T05:03:50.747Z,49.43
2023-03-01T05:06:20.681Z,45.27
2023-03-01T05:08:48.872Z,49.30
2023-03-01T05:11:16.450Z,54.17
2023-03-01T05:13:44.434Z,44.23
2023-03-01T05:16:13.252Z,45.93
2023-03-01T05:18:42.166Z,48.13
2023-03-01T05:21:13.209Z,49.67
2023-03-01T05:23:41.026Z,47.47
2023-03-01T05:26:16.193Z,43.70
2023-03-01T05:28:50.357Z,46.30
2023-03-01T05:31:18.397Z,57.07
2023-03-01T05:33:46.594Z,54.30
2023-03-01T05:36:14.311Z,54.17
2023-03-01T05:38:42.129Z,48.63
2023-03-01T05:41:17.281Z,45.73
2023-03-01T05:43:46.265Z,52.87
2023-03-01T05:46:16.452Z,50.90
2023-03-01T05:48:45.435Z,44.87
2023-03-01T05:51:13.275Z,50.27
2023-03-01T05:53:40.832Z,50.57
2023-03-01T05:56:09.269Z,47.60
2023-03-01T05:58:37.044Z,45.20
2023-03-01T06:01:04.877Z,49.63
2023-03-01T06:03:32.682Z,49.13
2023-03-01T06:06:01.089Z,45.13
2023-03-01T06:08:28.977Z,42.17
2023-03-01T06:10:57.039Z,49.13
2023-03-01T06:13:24.979Z,46.43
2023-03-01T06:15:53.459Z,48.80
2023-03-01T06:18:21.264Z,44.93
2023-03-01T06:20:55.098Z,44.73
2023-03-01T06:23:23.129Z,53.67
2023-03-01T06:25:51.422Z,50.10
2023-03-01T06:28:19.210Z,51.27
2023-03-01T06:30:47.594Z,49.17
2023-03-01T06:33:15.648Z,49.23
2023-03-01T06:35:43.746Z,50.03
2023-03-01T06:38:11.693Z,46.77
2023-03-01T06:40:39.858Z,43.90
2023-03-01T06:43:08.687Z,43.40
2023-03-01T06:45:37.027Z,46.90
2023-03-01T06:48:06.085Z,44.53
2023-03-01T06:50:34.511Z,44.43
2023-03-01T06:53:02.602Z,45.67
2023-03-01T06:55:30.700Z,48.33
2023-03-01T06:58:02.095Z,43.93
2023-03-01T07:00:30.325Z,47.37
2023-03-01T07:03:03.073Z,45.53
2023-03-01T07:05:31.839Z,38.07
2023-03-01T07:07:59.471Z,41.00
2023-03-01T07:10:27.273Z,43.90
2023-03-01T07:12:58.765Z,44.83
2023-03-01T07:15:27.173Z,44.43
2023-03-01T07:17:55.018Z,47.20
2023-03-01T07:20:25.603Z,36.13
2023-03-01T07:22:53.749Z,48.87
2023-03-01T07:25:21.830Z,50.87
2023-03-01T07:27:53.455Z,42.17
2023-03-01T07:30:21.929Z,44.73
2023-03-01T07:32:50.022Z,46.60
2023-03-01T07:35:17.996Z,46.00
2023-03-01T07:37:45.652Z,44.63
2023-03-01T07:40:13.774Z,40.33
2023-03-01T07:42:41.291Z,42.77
2023-03-01T07:45:09.375Z,40.10
2023-03-01T07:47:36.996Z,58.67
2023-03-01T07:50:05.345Z,40.00
2023-03-01T07:52:33.223Z,118.17
2023-03-01T07:55:01.121Z,106.07
2023-03-01T07:57:28.722Z,61.33
2023-03-01T07:59:56.600Z,42.20
2023-03-01T08:02:24.123Z,37.73
2023-03-01T08:04:52.048Z,40.87
2023-03-01T08:07:19.635Z,35.90
2023-03-01T08:09:47.524Z,39.17
2023-03-01T08:12:17.334Z,41.23
2023-03-01T08:14:45.352Z,39.83
2023-03-01T08:17:15.499Z,39.00
2023-03-01T08:19:44.121Z,37.90
2023-03-01T08:22:11.784Z,38.23
2023-03-01T08:24:39.785Z,45.60
2023-03-01T08:27:07.139Z,38.80
2023-03-01T08:29:35.355Z,35.20
2023-03-01T08:32:02.762Z,47.93
2023-03-01T08:34:32.357Z,44.33
2023-03-01T08:37:00.154Z,45.53
2023-03-01T08:39:28.147Z,40.10
2023-03-01T08:41:55.998Z,36.27
2023-03-01T08:44:23.986Z,37.07
2023-03-01T08:46:54.176Z,49.03
2023-03-01T08:49:22.465Z,49.33
2023-03-01T08:51:49.980Z,30.10
2023-03-01T08:54:22.581Z,36.40
2023-03-01T08:56:50.820Z,34.97
2023-03-01T08:59:19.401Z,30.27
2023-03-01T09:01:46.776Z,28.85
2023-03-01T09:04:15.968Z,27.17
2023-03-01T09:06:43.637Z,27.27
2023-03-01T09:09:17.185Z,27.73
2023-03-01T09:11:51.432Z,24.92
2023-03-01T09:14:19.075Z,44.15
2023-03-01T09:16:46.564Z,29.30
2023-03-01T09:19:14.964Z,32.17
2023-03-01T09:21:42.429Z,36.38
2023-03-01T09:24:16.250Z,32.67
2023-03-01T09:26:48.081Z,23.33
2023-03-01T09:29:17.334Z,31.08
2023-03-01T09:31:44.607Z,27.88
2023-03-01T09:34:12.211Z,25.92
2023-03-01T09:36:39.367Z,31.05
2023-03-01T09:39:07.066Z,27.98
2023-03-01T09:41:43.430Z,26.17
2023-03-01T09:44:19.981Z,35.78
2023-03-01T09:46:47.628Z,27.13
2023-03-01T09:49:26.168Z,39.42
2023-03-01T09:52:01.936Z,35.90
2023-03-01T09:54:30.092Z,36.58
2023-03-01T09:57:16.070Z,30.15
2023-03-01T10:00:05.477Z,32.58
2023-03-01T10:02:50.955Z,29.38
2023-03-01T10:05:56.254Z,33.97
2023-03-01T10:08:31.022Z,38.03
2023-03-01T10:11:00.108Z,32.47
2023-03-01T10:13:36.690Z,33.38
2023-03-01T10:16:15.799Z,35.38
2023-03-01T10:18:47.412Z,34.58
2023-03-01T10:21:18.760Z,29.95
2023-03-01T10:23:46.847Z,29.73
2023-03-01T10:26:39.061Z,27.02
2023-03-01T10:29:08.906Z,29.85
2023-03-01T10:31:44.793Z,26.67
2023-03-01T10:34:19.445Z,31.55
2023-03-01T10:36:53.684Z,37.13
2023-03-01T10:39:24.252Z,34.58
2023-03-01T10:41:59.868Z,29.67
2023-03-01T10:44:47.833Z,34.80
2023-03-01T10:47:15.659Z,35.85
2023-03-01T10:49:56.638Z,27.88
2023-03-01T10:52:34.439Z,23.25
2023-03-01T10:55:03.953Z,21.95
2023-03-01T10:57:39.413Z,22.40
2023-03-01T11:00:20.557Z,25.17
2023-03-01T11:03:04.492Z,23.52
2023-03-01T11:05:34.686Z,26.10
2023-03-01T11:08:04.410Z,25.65
2023-03-01T11:10:34.931Z,20.05
2023-03-01T11:13:16.286Z,21.45
2023-03-01T11:15:44.735Z,19.73
2023-03-01T11:18:33.920Z,24.10
2023-03-01T11:21:06.684Z,18.08
2023-03-01T11:23:34.506Z,17.13
2023-03-01T11:26:10.716Z,23.08
2023-03-01T11:28:43.090Z,18.10
2023-03-01T11:31:15.965Z,19.38
2023-03-01T11:34:29.286Z,21.08
2023-03-01T11:37:03.214Z,22.13
2023-03-01T11:40:01.060Z,22.67
2023-03-01T11:43:03.433Z,23.10
2023-03-01T11:45:59.438Z,23.23
2023-03-01T11:48:49.873Z,12.43
2023-03-01T11:51:49.011Z,12.65
2023-03-01T11:54:29.428Z,14.13
2023-03-01T11:57:15.640Z,16.52
2023-03-01T11:59:53.734Z,15.10
2023-03-01T12:02:55.508Z,16.65
2023-03-01T12:05:53.892Z,14.25
2023-03-01T12:08:27.343Z,16.85
2023-03-01T12:11:25.276Z,18.55
2023-03-01T12:14:14.314Z,16.20
2023-03-01T12:17:00.471Z,15.82
2023-03-01T12:19:53.584Z,14.27
2023-03-01T12:22:32.724Z,21.98
2023-03-01T12:25:04.319Z,18.13
2023-03-01T12:27:46.375Z,16.35
2023-03-01T12:30:38.498Z,21.10
2023-03-01T12:33:22.834Z,18.95
2023-03-01T12:36:01.315Z,21.17
2023-03-01T12:38:43.901Z,18.27
2023-03-01T12:42:02.390Z,19.05
2023-03-01T12:44:49.334Z,16.50
2023-03-01T12:47:25.120Z,14.63
2023-03-01T12:50:24.828Z,86.93
2023-03-01T12:52:59.716Z,21.30
2023-03-01T12:55:38.677Z,21.80
2023-03-01T12:58:40.369Z,51.90
2023-03-01T13:01:44.208Z,26.25
2023-03-01T13:04:46.010Z,31.58
2023-03-01T13:07:23.897Z,59.83
2023-03-01T13:10:10.029Z,29.80
2023-03-01T13:12:49.585Z,13.38
2023-03-01T13:15:23.407Z,19.02
2023-03-01T13:17:56.500Z,17.80
2023-03-01T13:20:47.623Z,23.88
2023-03-01T13:23:23.778Z,17.38
2023-03-01T13:26:00.389Z,13.52
2023-03-01T13:28:36.883Z,23.02
2023-03-01T13:31:06.753Z,23.23
2023-03-01T13:33:37.498Z,26.02
2023-03-01T13:36:08.187Z,12.43
2023-03-01T13:38:38.190Z,17.30
2023-03-01T13:41:06.901Z,14.52
2023-03-01T13:43:37.444Z,16.48
2023-03-01T13:46:31.261Z,19.75
2023-03-01T13:48:58.734Z,17.92
2023-03-01T13:51:29.101Z,15.77
2023-03-01T13:53:58.886Z,31.55
2023-03-01T13:56:34.364Z,17.33
2023-03-01T13:59:06.927Z,19.40
2023-03-01T14:01:37.410Z,22.20
2023-03-01T14:04:27.227Z,25.67
2023-03-01T14:07:13.827Z,18.10
2023-03-01T14:09:43.939Z,20.35
2023-03-01T14:12:31.395Z,19.48
2023-03-01T14:14:59.042Z,17.42
2023-03-01T14:17:34.599Z,19.15
2023-03-01T14:20:10.732Z,17.33
2023-03-01T14:22:42.081Z,16.38
2023-03-01T14:25:31.127Z,19.77
2023-03-01T14:28:05.917Z,21.55
2023-03-01T14:30:42.152Z,18.90
2023-03-01T14:33:24.354Z,18.75
2023-03-01T14:36:00.902Z,17.85
2023-03-01T14:38:46.656Z,20.38
2023-03-01T14:41:17.080Z,21.83
2023-03-01T14:44:16.965Z,19.38
2023-03-01T14:46:46.444Z,18.73
2023-03-01T14:49:21.876Z,20.55
2023-03-01T14:52:03.257Z,19.98
2023-03-01T14:54:46.334Z,17.70
2023-03-01T14:57:27.447Z,22.25
2023-03-01T14:59:59.744Z,23.05
2023-03-01T15:02:29.271Z,29.63
2023-03-01T15:05:07.189Z,33.15
2023-03-01T15:07:42.149Z,44.20
2023-03-01T15:10:26.857Z,34.22
2023-03-01T15:12:54.148Z,47.92
2023-03-01T15:15:32.328Z,45.47
2023-03-01T15:18:21.546Z,40.90
2023-03-01T15:20:50.879Z,55.08
2023-03-01T15:23:30.998Z,46.72
2023-03-01T15:25:59.698Z,39.00
2023-03-01T15:28:34.943Z,42.97
2023-03-01T15:31:13.611Z,44.30
2023-03-01T15:33:48.123Z,47.40
2023-03-01T15:36:40.855Z,48.07
2023-03-01T15:39:38.729Z,32.60
2023-03-01T15:42:43.596Z,38.07
2023-03-01T15:45:17.950Z,58.03
2023-03-01T15:48:06.892Z,47.23
2023-03-01T15:50:36.930Z,60.53
2023-03-01T15:53:19.329Z,56.43
2023-03-01T15:55:49.845Z,55.80
2023-03-01T15:58:21.790Z,49.10
2023-03-01T16:01:00.876Z,61.83
2023-03-01T16:03:30.260Z,62.47
2023-03-01T16:05:57.980Z,63.77
2023-03-01T16:08:25.814Z,65.20
2023-03-01T16:10:55.483Z,67.73
2023-03-01T16:13:23.399Z,54.10
2023-03-01T16:15:50.776Z,56.77
2023-03-01T16:18:18.488Z,47.27
2023-03-01T16:20:46.232Z,46.97
2023-03-01T16:23:15.424Z,37.50
2023-03-01T16:25:42.726Z,35.50
2023-03-01T16:28:11.223Z,35.20
2023-03-01T16:30:40.829Z,30.77
2023-03-01T16:33:26.268Z,29.87
2023-03-01T16:35:57.888Z,25.87
2023-03-01T16:38:25.575Z,24.83
2023-03-01T16:40:53.634Z,31.63
2023-03-01T16:43:21.593Z,24.60
2023-03-01T16:45:49.112Z,21.87
2023-03-01T16:48:16.919Z,23.53
2023-03-01T16:50:44.267Z,24.33
2023-03-01T16:53:12.193Z,28.77
2023-03-01T16:55:46.318Z,24.93
2023-03-01T16:58:16.593Z,22.00
2023-03-01T17:00:43.924Z,24.43
2023-03-01T17:03:12.189Z,21.27
2023-03-01T17:05:41.784Z,31.03
2023-03-01T17:08:09.357Z,24.50
2023-03-01T17:10:36.712Z,30.07
2023-03-01T17:13:04.787Z,23.43
2023-03-01T17:15:32.215Z,23.93
2023-03-01T17:17:59.861Z,26.40
2023-03-01T17:20:27.147Z,23.90
2023-03-01T17:22:54.952Z,26.63
2023-03-01T17:25:22.390Z,23.13
2023-03-01T17:27:50.146Z,23.10
2023-03-01T17:30:18.141Z,25.70
2023-03-01T17:32:46.491Z,22.33
2023-03-01T17:35:14.118Z,20.20
2023-03-01T17:37:46.596Z,23.00
2023-03-01T17:40:14.384Z,23.13
2023-03-01T17:42:42.273Z,19.23
2023-03-01T17:45:09.997Z,21.13
2023-03-01T17:47:37.971Z,18.37
2023-03-01T17:50:06.771Z,19.10
2023-03-01T17:52:34.768Z,20.17
2023-03-01T17:55:02.450Z,20.37
2023-03-01T17:57:31.067Z,17.90
2023-03-01T17:59:59.274Z,19.20
2023-03-01T18:02:27.328Z,18.07
2023-03-01T18:04:59.414Z,19.43
2023-03-01T18:07:28.972Z,16.03
2023-03-01T18:09:56.938Z,25.47
2023-03-01T18:12:24.969Z,21.00
2023-03-01T18:14:54.857Z,21.87
2023-03-01T18:17:25.806Z,20.03
2023-03-01T18:19:56.392Z,18.73
2023-03-01T18:22:25.393Z,21.83
2023-03-01T18:24:53.634Z,20.30
2023-03-01T18:27:22.269Z,17.87
2023-03-01T18:29:50.345Z,17.60
2023-03-01T18:32:19.142Z,24.90
2023-03-01T18:34:48.509Z,21.80
2023-03-01T18:37:18.412Z,24.23
2023-03-01T18:39:46.580Z,19.70
2023-03-01T18:42:16.573Z,21.80
2023-03-01T18:44:48.367Z,29.70
2023-03-01T18:47:17.264Z,28.60
2023-03-01T18:49:45.039Z,64.03
2023-03-01T18:52:13.261Z,55.10
2023-03-01T18:54:41.244Z,54.10
2023-03-01T18:57:09.773Z,66.53
2023-03-01T18:59:37.608Z,79.73
2023-03-01T19:02:05.872Z,78.87
2023-03-01T19:04:33.460Z,250.77
2023-03-01T19:07:02.367Z,83.57
2023-03-01T19:09:30.840Z,93.00
2023-03-01T19:12:02.212Z,90.53
2023-03-01T19:14:30.073Z,48.83
2023-03-01T19:16:57.773Z,47.40
2023-03-01T19:19:25.876Z,39.83
2023-03-01T19:22:05.231Z,49.13
2023-03-01T19:24:33.648Z,46.20
2023-03-01T19:27:01.502Z,28.73
2023-03-01T19:29:29.138Z,30.93
2023-03-01T19:31:57.043Z,27.37
2023-03-01T19:34:25.720Z,34.10
2023-03-01T19:36:54.026Z,36.73
2023-03-01T19:39:21.853Z,37.53
2023-03-01T19:41:50.322Z,28.60
2023-03-01T19:44:19.039Z,29.73
2023-03-01T19:46:46.953Z,27.97
2023-03-01T19:49:14.402Z,33.33
2023-03-01T19:51:42.585Z,38.30
2023-03-01T19:54:11.897Z,32.60
2023-03-01T19:56:41.089Z,35.17
2023-03-01T19:59:09.917Z,39.87
2023-03-01T20:01:43.332Z,42.00
2023-03-01T20:04:13.227Z,44.53
2023-03-01T20:06:41.810Z,42.13
2023-03-01T20:09:20.975Z,47.10
2023-03-01T20:11:50.913Z,45.47
2023-03-01T20:14:21.723Z,43.23
2023-03-01T20:16:52.887Z,44.47
2023-03-01T20:19:22.101Z,43.60
2023-03-01T20:21:50.939Z,41.27
2023-03-01T20:24:18.940Z,53.20
2023-03-01T20:26:47.108Z,47.27
2023-03-01T20:29:15.424Z,51.57
2023-03-01T20:31:44.251Z,48.80
2023-03-01T20:34:23.497Z,58.53
2023-03-01T20:36:55.995Z,55.50
2023-03-01T20:39:25.153Z,48.17
2023-03-01T20:41:53.428Z,54.80
2023-03-01T20:44:21.199Z,53.37
2023-03-01T20:46:51.113Z,53.80
2023-03-01T20:49:18.925Z,56.63
2023-03-01T20:51:48.823Z,69.20
2023-03-01T20:54:17.059Z,64.83
2023-03-01T20:56:45.585Z,76.63
2023-03-01T20:59:13.591Z,65.70
2023-03-01T21:01:41.708Z,73.77
2023-03-01T21:04:10.219Z,78.83
2023-03-01T21:06:39.220Z,82.30
2023-03-01T21:09:07.347Z,87.40
2023-03-01T21:11:35.729Z,85.60
2023-03-01T21:14:05.630Z,94.83
2023-03-01T21:16:35.507Z,93.63
2023-03-01T21:19:06.543Z,105.10
2023-03-01T21:21:34.582Z,114.33
2023-03-01T21:24:02.437Z,105.90
2023-03-01T21:26:31.249Z,117.93
2023-03-01T21:29:04.631Z,124.33
2023-03-01T21:31:36.209Z,139.63
2023-03-01T21:34:06.750Z,121.63
2023-03-01T21:36:36.051Z,122.87
2023-03-01T21:39:07.170Z,101.90
2023-03-01T21:41:37.649Z,99.63
2023-03-01T21:44:07.585Z,82.03
2023-03-01T21:46:39.031Z,79.43
2023-03-01T21:49:09.519Z,66.50
2023-03-01T21:51:37.745Z,76.83
2023-03-01T21:54:06.087Z,63.83
2023-03-01T21:56:39.390Z,59.67
2023-03-01T21:59:12.676Z,60.07
2023-03-01T22:01:40.572Z,53.27
2023-03-01T22:04:08.504Z,48.10
2023-03-01T22:06:41.068Z,45.73
2023-03-01T22:09:21.246Z,45.07
2023-03-01T22:11:54.846Z,44.03
2023-03-01T22:14:22.493Z,42.00
2023-03-01T22:16:51.991Z,44.50
2023-03-01T22:19:20.492Z,49.37
2023-03-01T22:21:52.278Z,50.00
2023-03-01T22:24:22.991Z,53.13
2023-03-01T22:26:52.696Z,89.57
2023-03-01T22:29:27.585Z,99.57
2023-03-01T22:31:57.057Z,59.53
2023-03-01T22:34:25.190Z,60.37
2023-03-01T22:36:53.440Z,53.00
2023-03-01T22:39:21.870Z,56.67
2023-03-01T22:41:50.365Z,64.77
2023-03-01T22:44:24.144Z,60.97
2023-03-01T22:46:52.504Z,55.87
2023-03-01T22:49:20.761Z,50.60
2023-03-01T22:51:49.338Z,49.80
2023-03-01T22:54:18.376Z,47.63
2023-03-01T22:56:46.689Z,44.37
2023-03-01T22:59:16.676Z,44.10
2023-03-01T23:01:46.602Z,44.83
2023-03-01T23:04:16.701Z,45.90
2023-03-01T23:06:50.647Z,43.93
2023-03-01T23:09:22.505Z,59.10
2023-03-01T23:11:51.906Z,59.93
2023-03-01T23:14:21.673Z,79.70
2023-03-01T23:16:50.539Z,82.63
2023-03-01T23:19:19.159Z,85.87
2023-03-01T23:21:50.331Z,100.77
2023-03-01T23:24:20.169Z,91.83
2023-03-01T23:26:55.073Z,98.20
2023-03-01T23:29:22.802Z,111.87
2023-03-01T23:31:51.011Z,135.83
2023-03-01T23:34:19.569Z,183.23
2023-03-01T23:36:47.666Z,171.90
2023-03-01T23:39:14.963Z,142.63
2023-03-01T23:41:42.631Z,161.87
2023-03-01T23:44:17.617Z,157.07
2023-03-01T23:46:47.008Z,168.90
2023-03-01T23:49:17.472Z,147.20
2023-03-01T23:51:47.848Z,145.23
2023-03-01T23:54:21.406Z,129.53
2023-03-01T23:56:49.896Z,123.80
2023-03-01T23:59:20.182Z,121.77
